createdAt,value
2022-08-26T00:01:52.240Z,94.90
2022-08-26T00:04:19.244Z,95.10
2022-08-26T00:06:46.450Z,95.20
2022-08-26T00:09:16.045Z,95.00
2022-08-26T00:11:43.508Z,94.80
2022-08-26T00:14:10.300Z,94.80
2022-08-26T00:16:41.000Z,94.80
2022-08-26T00:19:14.784Z,94.80
2022-08-26T00:21:41.602Z,94.80
2022-08-26T00:24:08.977Z,94.80
2022-08-26T00:26:36.178Z,94.90
2022-08-26T00:29:03.133Z,94.90
2022-08-26T00:31:32.148Z,95.00
2022-08-26T00:34:00.319Z,95.20
2022-08-26T00:36:29.653Z,95.30
2022-08-26T00:38:57.026Z,95.40
2022-08-26T00:41:23.980Z,95.50
2022-08-26T00:43:51.769Z,95.70
2022-08-26T00:46:21.656Z,96.10
2022-08-26T00:48:53.422Z,96.10
2022-08-26T00:51:29.551Z,96.10
2022-08-26T00:54:02.005Z,95.80
2022-08-26T00:56:36.173Z,95.90
2022-08-26T00:59:08.945Z,96.00
2022-08-26T01:01:37.984Z,96.20
2022-08-26T01:04:06.081Z,96.30
2022-08-26T01:06:34.448Z,96.60
2022-08-26T01:09:01.323Z,96.90
2022-08-26T01:11:28.322Z,96.80
2022-08-26T01:13:59.312Z,96.80
2022-08-26T01:16:26.201Z,97.00
2022-08-26T01:18:55.240Z,97.30
2022-08-26T01:21:28.411Z,97.30
2022-08-26T01:23:58.629Z,97.60
2022-08-26T01:26:28.812Z,97.50
2022-08-26T01:28:59.045Z,97.70
2022-08-26T01:31:29.980Z,97.70
2022-08-26T01:34:01.951Z,97.70
2022-08-26T01:36:29.289Z,97.80
2022-08-26T01:38:57.636Z,98.00
2022-08-26T01:41:27.284Z,98.40
2022-08-26T01:43:56.733Z,98.70
2022-08-26T01:46:25.857Z,98.60
2022-08-26T01:48:55.164Z,98.70
2022-08-26T01:51:25.306Z,98.70
2022-08-26T01:53:52.193Z,98.90
2022-08-26T01:56:22.075Z,99.10
2022-08-26T01:58:53.763Z,99.00
2022-08-26T02:01:21.313Z,99.20
2022-08-26T02:03:58.444Z,99.50
2022-08-26T02:06:25.323Z,99.40
2022-08-26T02:08:56.166Z,99.80
2022-08-26T02:16:44.507Z,99.80
2022-08-26T02:19:16.844Z,99.80
2022-08-26T02:21:45.854Z,99.80
2022-08-26T02:24:21.242Z,99.80
2022-08-26T02:26:48.571Z,99.90
2022-08-26T02:29:20.662Z,99.90
2022-08-26T02:31:49.593Z,99.80
2022-08-26T02:34:28.090Z,99.80
2022-08-26T02:36:58.340Z,99.90
2022-08-26T02:39:25.168Z,99.90
2022-08-26T02:41:51.920Z,99.90
2022-08-26T02:44:19.221Z,99.90
2022-08-26T02:46:47.102Z,99.90
2022-08-26T02:49:15.496Z,99.90
2022-08-26T02:51:43.873Z,99.90
2022-08-26T02:54:10.696Z,99.90
2022-08-26T02:56:37.587Z,99.90
2022-08-26T02:59:04.485Z,99.90
2022-08-26T03:01:34.382Z,99.90
2022-08-26T03:04:03.313Z,99.90
2022-08-26T03:06:31.700Z,99.90
2022-08-26T03:08:59.480Z,99.90
2022-08-26T03:11:29.734Z,99.90
2022-08-26T03:14:00.551Z,99.90
2022-08-26T03:16:32.351Z,99.90
2022-08-26T03:19:00.458Z,99.90
2022-08-26T03:21:27.288Z,99.90
2022-08-26T03:23:56.045Z,99.90
2022-08-26T03:26:26.859Z,99.90
2022-08-26T03:29:13.416Z,99.90
2022-08-26T03:31:40.382Z,99.90
2022-08-26T03:34:07.328Z,99.90
2022-08-26T03:36:35.080Z,99.90
2022-08-26T03:39:03.428Z,99.90
2022-08-26T03:41:32.544Z,99.90
2022-08-26T03:44:01.678Z,99.90
2022-08-26T03:46:30.369Z,99.90
2022-08-26T03:51:26.136Z,99.90
2022-08-26T03:53:53.185Z,99.90
2022-08-26T03:56:21.309Z,99.90
2022-08-26T03:58:48.039Z,99.90
2022-08-26T04:01:17.675Z,99.90
2022-08-26T04:04:00.171Z,99.90
2022-08-26T04:06:31.093Z,99.90
2022-08-26T04:09:00.213Z,99.90
2022-08-26T04:11:34.551Z,99.90
2022-08-26T04:14:04.246Z,99.90
2022-08-26T04:16:31.519Z,99.90
2022-08-26T04:18:58.908Z,99.90
2022-08-26T04:21:27.131Z,99.90
2022-08-26T04:23:54.716Z,99.90
2022-08-26T04:26:24.252Z,99.90
2022-08-26T04:28:54.211Z,99.90
2022-08-26T04:31:21.647Z,99.90
2022-08-26T04:33:50.065Z,99.90
2022-08-26T04:36:20.171Z,99.90
2022-08-26T04:38:47.311Z,99.90
2022-08-26T04:41:14.973Z,99.90
2022-08-26T04:43:42.668Z,99.90
2022-08-26T04:46:13.046Z,99.90
2022-08-26T04:48:41.155Z,99.90
2022-08-26T04:51:08.510Z,99.90
2022-08-26T04:53:37.008Z,99.90
2022-08-26T04:56:04.385Z,99.90
2022-08-26T04:58:31.628Z,99.90
2022-08-26T05:00:58.611Z,99.90
2022-08-26T05:03:30.345Z,99.90
2022-08-26T05:05:58.393Z,99.90
2022-08-26T05:10:57.501Z,99.90
2022-08-26T05:13:28.906Z,99.90
2022-08-26T05:16:01.124Z,99.90
2022-08-26T05:18:30.209Z,99.90
2022-08-26T05:20:57.454Z,99.90
2022-08-26T05:23:24.909Z,99.90
2022-08-26T05:25:58.819Z,99.90
2022-08-26T05:28:29.183Z,99.90
2022-08-26T05:30:56.356Z,99.90
2022-08-26T05:33:24.155Z,99.90
2022-08-26T05:35:52.597Z,99.90
2022-08-26T05:38:21.387Z,99.90
2022-08-26T05:40:52.516Z,99.90
2022-08-26T05:43:20.636Z,99.90
2022-08-26T05:45:49.056Z,99.90
2022-08-26T05:48:18.575Z,99.90
2022-08-26T05:50:52.736Z,99.90
2022-08-26T05:53:21.878Z,99.90
2022-08-26T05:55:52.596Z,99.90
2022-08-26T05:58:21.804Z,99.90
2022-08-26T06:00:57.215Z,99.90
2022-08-26T06:03:24.247Z,99.90
2022-08-26T06:05:52.599Z,99.90
2022-08-26T06:08:21.090Z,99.90
2022-08-26T06:10:50.970Z,99.90
2022-08-26T06:13:20.433Z,99.90
2022-08-26T06:15:50.053Z,99.90
2022-08-26T06:18:19.674Z,99.90
2022-08-26T06:20:57.034Z,99.90
2022-08-26T06:23:46.825Z,99.90
2022-08-26T06:26:15.571Z,99.90
2022-08-26T06:28:45.600Z,99.90
2022-08-26T06:31:13.420Z,99.90
2022-08-26T06:33:40.324Z,99.90
2022-08-26T06:36:07.436Z,99.90
2022-08-26T06:38:36.501Z,99.90
2022-08-26T06:41:03.351Z,99.90
2022-08-26T06:43:30.072Z,99.90
2022-08-26T06:46:02.066Z,99.90
2022-08-26T06:48:32.241Z,99.90
2022-08-26T06:51:04.689Z,99.90
2022-08-26T06:53:31.492Z,99.90
2022-08-26T06:56:02.086Z,99.90
2022-08-26T06:58:28.907Z,99.90
2022-08-26T07:00:58.478Z,99.90
2022-08-26T07:03:28.820Z,99.90
2022-08-26T07:06:01.828Z,99.90
2022-08-26T07:08:30.326Z,99.90
2022-08-26T07:11:03.660Z,99.90
2022-08-26T07:13:31.683Z,99.90
2022-08-26T07:15:59.048Z,99.90
2022-08-26T07:18:30.002Z,99.90
2022-08-26T07:20:56.771Z,99.90
2022-08-26T07:23:23.516Z,99.90
2022-08-26T07:25:51.144Z,99.90
2022-08-26T07:28:20.005Z,99.90
2022-08-26T07:30:46.871Z,99.90
2022-08-26T07:33:13.856Z,99.90
2022-08-26T07:35:40.706Z,99.90
2022-08-26T07:38:07.642Z,99.90
2022-08-26T07:40:34.434Z,99.90
2022-08-26T07:43:01.208Z,99.90
2022-08-26T07:45:29.825Z,99.90
2022-08-26T07:47:56.950Z,99.90
2022-08-26T07:50:34.163Z,99.90
2022-08-26T07:53:12.407Z,99.90
2022-08-26T07:55:41.489Z,99.90
2022-08-26T07:58:08.293Z,99.90
2022-08-26T08:00:36.414Z,99.90
2022-08-26T08:03:05.674Z,99.90
2022-08-26T08:05:33.365Z,99.90
2022-08-26T08:08:26.910Z,99.90
2022-08-26T08:10:48.968Z,99.90
2022-08-26T08:13:16.061Z,99.90
2022-08-26T08:15:44.608Z,99.90
2022-08-26T08:18:15.601Z,99.90
2022-08-26T08:20:47.632Z,99.90
2022-08-26T08:23:26.080Z,99.90
2022-08-26T08:26:01.297Z,99.90
2022-08-26T08:28:28.314Z,99.90
2022-08-26T08:30:57.560Z,99.90
2022-08-26T08:33:24.545Z,99.90
2022-08-26T08:35:51.325Z,99.90
2022-08-26T08:38:19.038Z,99.90
2022-08-26T08:40:46.127Z,99.90
2022-08-26T08:43:15.531Z,99.90
2022-08-26T08:45:44.595Z,99.90
2022-08-26T08:48:20.859Z,99.90
2022-08-26T08:50:57.005Z,99.90
2022-08-26T08:53:31.693Z,99.90
2022-08-26T08:56:06.219Z,99.50
2022-08-26T08:58:53.820Z,99.30
2022-08-26T09:01:42.197Z,99.50
2022-08-26T09:04:57.487Z,98.60
2022-08-26T09:07:27.982Z,98.30
2022-08-26T09:09:59.052Z,98.10
2022-08-26T09:12:29.290Z,97.90
2022-08-26T09:15:01.791Z,97.90
2022-08-26T09:17:38.000Z,98.00
2022-08-26T09:20:18.125Z,97.80
2022-08-26T09:22:45.452Z,97.80
2022-08-26T09:25:14.482Z,97.70
2022-08-26T09:27:44.438Z,96.90
2022-08-26T09:30:18.192Z,97.30
2022-08-26T09:32:58.240Z,96.70
2022-08-26T09:35:30.965Z,96.50
2022-08-26T09:37:58.946Z,95.90
2022-08-26T09:40:30.269Z,95.90
2022-08-26T09:43:15.819Z,95.90
2022-08-26T09:45:50.658Z,95.80
2022-08-26T09:48:28.254Z,96.00
2022-08-26T09:50:59.990Z,96.00
2022-08-26T09:53:30.969Z,95.80
2022-08-26T09:56:17.246Z,96.00
2022-08-26T09:58:47.081Z,95.10
2022-08-26T10:01:30.113Z,95.30
2022-08-26T10:04:06.308Z,95.10
2022-08-26T10:06:38.945Z,95.20
2022-08-26T10:09:10.779Z,95.20
2022-08-26T10:11:42.788Z,94.90
2022-08-26T10:14:15.805Z,94.90
2022-08-26T10:16:48.688Z,95.10
2022-08-26T10:19:20.677Z,95.60
2022-08-26T10:21:56.111Z,95.40
2022-08-26T10:24:27.973Z,95.10
2022-08-26T10:27:02.341Z,94.60
2022-08-26T10:29:35.773Z,94.80
2022-08-26T10:32:10.255Z,94.70
2022-08-26T10:34:40.806Z,94.70
2022-08-26T10:37:16.625Z,95.20
2022-08-26T10:39:57.081Z,95.10
2022-08-26T10:42:30.436Z,95.50
2022-08-26T10:45:04.292Z,95.40
2022-08-26T10:47:38.285Z,95.60
2022-08-26T10:50:06.077Z,95.20
2022-08-26T10:52:52.563Z,95.10
2022-08-26T10:55:24.455Z,95.30
2022-08-26T10:57:57.825Z,95.30
2022-08-26T11:00:48.429Z,95.20
2022-08-26T11:03:31.408Z,95.40
2022-08-26T11:06:22.803Z,94.70
2022-08-26T11:08:52.653Z,94.80
2022-08-26T11:11:46.914Z,94.70
2022-08-26T11:14:46.021Z,94.50
2022-08-26T11:17:56.509Z,94.70
2022-08-26T11:20:34.211Z,94.80
2022-08-26T11:23:34.958Z,95.00
2022-08-26T11:26:35.399Z,94.80
2022-08-26T11:29:04.847Z,94.60
2022-08-26T11:31:54.754Z,94.60
2022-08-26T11:34:51.911Z,94.70
2022-08-26T11:39:54.802Z,94.60
2022-08-26T11:42:31.113Z,94.20
2022-08-26T11:44:59.319Z,94.40
2022-08-26T11:47:31.564Z,94.20
2022-08-26T11:50:15.153Z,94.10
2022-08-26T11:52:51.364Z,93.80
2022-08-26T11:55:19.162Z,94.10
2022-08-26T11:57:50.603Z,93.80
2022-08-26T12:00:33.553Z,93.90
2022-08-26T12:03:06.233Z,93.90
2022-08-26T12:05:36.120Z,93.70
2022-08-26T12:08:08.734Z,93.70
2022-08-26T12:10:36.504Z,93.60
2022-08-26T12:13:07.107Z,93.80
2022-08-26T12:15:35.628Z,94.10
2022-08-26T12:18:17.678Z,93.50
2022-08-26T12:20:56.341Z,93.40
2022-08-26T12:23:26.858Z,92.90
2022-08-26T12:26:03.616Z,93.20
2022-08-26T12:28:32.193Z,93.40
2022-08-26T12:31:01.108Z,93.60
2022-08-26T12:33:28.455Z,94.20
2022-08-26T12:35:57.002Z,94.10
2022-08-26T12:38:24.777Z,93.80
2022-08-26T12:40:52.354Z,94.10
2022-08-26T12:43:42.545Z,93.80
2022-08-26T12:46:11.721Z,94.20
2022-08-26T12:48:42.634Z,93.40
2022-08-26T12:51:19.609Z,93.70
2022-08-26T12:53:46.502Z,93.90
2022-08-26T12:56:24.802Z,94.00
2022-08-26T12:59:05.977Z,93.80
2022-08-26T13:01:39.268Z,94.00
2022-08-26T13:04:06.855Z,93.50
2022-08-26T13:06:34.905Z,93.90
2022-08-26T13:09:06.004Z,93.90
2022-08-26T13:11:35.610Z,93.80
2022-08-26T13:14:06.789Z,93.60
2022-08-26T13:16:34.823Z,93.30
2022-08-26T13:19:05.183Z,93.20
2022-08-26T13:21:37.446Z,93.50
2022-08-26T13:24:08.392Z,93.30
2022-08-26T13:26:35.590Z,93.30
2022-08-26T13:29:08.413Z,93.30
2022-08-26T13:31:39.733Z,93.40
2022-08-26T13:34:07.849Z,93.80
2022-08-26T13:36:34.635Z,93.70
2022-08-26T13:39:01.438Z,93.80
2022-08-26T13:41:29.445Z,93.60
2022-08-26T13:43:56.809Z,91.10
2022-08-26T13:46:27.627Z,91.80
2022-08-26T13:48:54.547Z,91.90
2022-08-26T13:51:22.782Z,92.20
2022-08-26T13:53:50.253Z,91.60
2022-08-26T13:56:17.152Z,91.20
2022-08-26T13:58:44.500Z,91.40
2022-08-26T14:01:13.714Z,91.80
2022-08-26T14:03:41.988Z,92.00
2022-08-26T14:06:09.203Z,92.00
2022-08-26T14:08:36.845Z,92.10
2022-08-26T14:11:03.659Z,91.80
2022-08-26T14:13:30.403Z,92.10
2022-08-26T14:18:31.988Z,91.70
2022-08-26T14:21:00.558Z,91.00
2022-08-26T14:23:27.716Z,91.60
2022-08-26T14:25:54.557Z,90.60
2022-08-26T14:28:21.573Z,90.40
2022-08-26T14:30:53.306Z,88.80
2022-08-26T14:33:24.404Z,89.30
2022-08-26T14:35:51.360Z,90.00
2022-08-26T14:38:19.475Z,90.00
2022-08-26T14:40:46.314Z,89.50
2022-08-26T14:43:15.301Z,89.70
2022-08-26T14:45:45.505Z,88.90
2022-08-26T14:50:39.654Z,88.30
2022-08-26T14:53:24.904Z,89.10
2022-08-26T14:55:53.070Z,89.50
2022-08-26T14:58:19.852Z,90.10
2022-08-26T15:00:46.644Z,90.10
2022-08-26T15:05:48.034Z,90.80
2022-08-26T15:08:15.549Z,90.70
2022-08-26T15:13:10.810Z,91.80
2022-08-26T15:15:37.966Z,92.00
2022-08-26T15:18:06.072Z,94.20
2022-08-26T15:23:06.899Z,99.00
2022-08-26T15:25:33.831Z,99.90
2022-08-26T15:28:00.697Z,99.90
2022-08-26T15:30:28.838Z,99.90
2022-08-26T15:35:22.823Z,99.90
2022-08-26T15:40:18.348Z,99.90
2022-08-26T15:42:54.396Z,99.90
2022-08-26T15:45:29.550Z,99.90
2022-08-26T15:48:01.615Z,99.90
2022-08-26T15:50:30.046Z,99.90
2022-08-26T15:52:57.029Z,99.90
2022-08-26T15:55:24.407Z,99.90
2022-08-26T16:00:19.946Z,99.90
2022-08-26T16:02:48.358Z,99.90
2022-08-26T16:07:42.367Z,99.90
2022-08-26T16:10:10.095Z,99.90
2022-08-26T16:12:36.862Z,99.90
2022-08-26T16:15:04.426Z,99.90
2022-08-26T16:17:31.305Z,99.90
2022-08-26T16:19:59.852Z,99.90
2022-08-26T16:22:27.059Z,99.90
2022-08-26T16:24:57.109Z,99.90
2022-08-26T16:29:51.283Z,99.90
2022-08-26T16:32:18.070Z,99.90
2022-08-26T16:34:56.690Z,99.90
2022-08-26T16:37:25.138Z,99.90
2022-08-26T16:39:51.957Z,99.90
2022-08-26T16:42:18.732Z,99.90
2022-08-26T16:44:45.716Z,99.90
2022-08-26T16:47:13.362Z,99.90
2022-08-26T16:49:41.186Z,99.90
2022-08-26T16:52:09.426Z,99.90
2022-08-26T16:54:39.612Z,99.90
2022-08-26T16:57:06.951Z,99.90
2022-08-26T17:02:02.143Z,99.90
2022-08-26T17:04:29.553Z,99.90
2022-08-26T17:06:56.541Z,99.90
2022-08-26T17:09:23.351Z,99.90
2022-08-26T17:11:51.724Z,99.90
2022-08-26T17:14:18.902Z,99.90
2022-08-26T17:16:46.033Z,99.90
2022-08-26T17:19:12.822Z,99.90
2022-08-26T17:26:35.780Z,99.90
2022-08-26T17:29:04.610Z,99.90
2022-08-26T17:31:32.435Z,99.90
2022-08-26T17:33:59.722Z,99.90
2022-08-26T17:36:27.863Z,99.90
2022-08-26T17:38:56.398Z,99.90
2022-08-26T17:41:23.199Z,99.90
2022-08-26T17:46:18.493Z,99.90
2022-08-26T17:48:47.109Z,99.90
2022-08-26T17:51:16.840Z,99.90
2022-08-26T17:53:43.534Z,99.90
2022-08-26T17:56:13.754Z,99.90
2022-08-26T17:58:40.647Z,99.90
2022-08-26T18:03:43.554Z,99.90
2022-08-26T18:06:12.066Z,99.90
2022-08-26T18:08:40.058Z,99.90
2022-08-26T18:11:11.517Z,99.90
2022-08-26T18:13:39.106Z,99.90
2022-08-26T18:21:13.989Z,99.90
2022-08-26T18:23:40.888Z,99.90
2022-08-26T18:26:07.715Z,99.90
2022-08-26T18:28:38.133Z,99.90
2022-08-26T18:31:07.312Z,99.90
2022-08-26T18:36:01.758Z,99.90
2022-08-26T18:38:29.953Z,99.90
2022-08-26T18:46:01.809Z,99.90
2022-08-26T18:50:56.698Z,99.90
2022-08-26T18:55:52.199Z,99.90
2022-08-26T19:03:18.481Z,99.90
2022-08-26T19:05:46.263Z,99.90
2022-08-26T19:08:13.076Z,99.90
2022-08-26T19:13:09.402Z,99.90
2022-08-26T19:15:38.200Z,99.90
2022-08-26T19:18:05.322Z,99.90
2022-08-26T19:20:32.806Z,99.90
2022-08-26T19:23:02.616Z,99.90
2022-08-26T19:25:40.549Z,99.90
2022-08-26T19:28:09.310Z,99.90
2022-08-26T19:30:38.667Z,99.90
2022-08-26T19:33:05.821Z,99.90
2022-08-26T19:35:32.701Z,99.90
2022-08-26T19:37:59.824Z,99.90
2022-08-26T19:40:27.340Z,99.90
2022-08-26T19:42:54.505Z,99.90
2022-08-26T19:45:25.354Z,99.90
2022-08-26T19:50:21.954Z,99.90
2022-08-26T19:52:49.335Z,99.90
2022-08-26T19:55:17.453Z,99.90
2022-08-26T19:57:44.308Z,99.90
2022-08-26T20:00:14.787Z,99.90
2022-08-26T20:02:44.187Z,99.90
2022-08-26T20:05:13.683Z,99.90
2022-08-26T20:07:40.914Z,99.90
2022-08-26T20:10:11.074Z,99.90
2022-08-26T20:12:37.895Z,99.90
2022-08-26T20:15:05.789Z,99.90
2022-08-26T20:17:33.083Z,99.90
2022-08-26T20:20:29.717Z,99.90
2022-08-26T20:23:00.772Z,99.90
2022-08-26T20:27:54.941Z,99.90
2022-08-26T20:30:22.025Z,99.90
2022-08-26T20:32:48.860Z,99.90
2022-08-26T20:35:17.590Z,99.90
2022-08-26T20:37:44.397Z,99.90
2022-08-26T20:40:13.299Z,99.90
2022-08-26T20:42:40.451Z,99.90
2022-08-26T20:45:08.406Z,99.90
2022-08-26T20:47:35.372Z,99.90
2022-08-26T20:50:02.717Z,99.90
2022-08-26T20:52:30.904Z,99.90
2022-08-26T20:54:58.012Z,99.90
2022-08-26T20:57:24.877Z,99.90
2022-08-26T20:59:51.649Z,99.90
2022-08-26T21:02:18.498Z,99.90
2022-08-26T21:04:45.521Z,99.90
2022-08-26T21:07:12.380Z,99.90
2022-08-26T21:09:40.743Z,99.90
2022-08-26T21:12:09.213Z,99.90
2022-08-26T21:14:36.028Z,99.90
2022-08-26T21:17:03.049Z,99.90
2022-08-26T21:19:29.983Z,99.90
2022-08-26T21:21:56.785Z,99.90
2022-08-26T21:26:52.078Z,99.90
2022-08-26T21:29:21.855Z,99.90
2022-08-26T21:31:48.753Z,99.90
2022-08-26T21:34:17.323Z,99.90
2022-08-26T21:36:44.818Z,99.90
2022-08-26T21:39:12.442Z,99.90
2022-08-26T21:41:40.446Z,99.90
2022-08-26T21:44:09.636Z,99.90
2022-08-26T21:46:37.175Z,99.90
2022-08-26T21:49:07.810Z,99.90
2022-08-26T21:51:38.769Z,99.90
2022-08-26T21:54:10.781Z,99.90
2022-08-26T21:56:40.679Z,99.90
2022-08-26T21:59:09.126Z,99.90
2022-08-26T22:01:36.478Z,99.90
2022-08-26T22:04:05.839Z,99.90
2022-08-26T22:06:35.165Z,99.90
2022-08-26T22:16:26.660Z,99.90
2022-08-26T22:18:55.099Z,99.90
2022-08-26T22:21:24.781Z,99.90
2022-08-26T22:23:51.458Z,99.90
2022-08-26T22:26:25.699Z,99.90
2022-08-26T22:28:58.770Z,99.90
2022-08-26T22:31:37.017Z,99.90
2022-08-26T22:34:07.582Z,99.90
2022-08-26T22:36:34.573Z,99.90
2022-08-26T22:39:01.590Z,99.90
2022-08-26T22:41:28.401Z,99.90
2022-08-26T22:44:01.225Z,99.90
2022-08-26T22:46:29.682Z,99.90
2022-08-26T22:51:23.678Z,99.90
2022-08-26T22:53:50.467Z,99.90
2022-08-26T22:56:18.997Z,99.90
2022-08-26T23:01:13.498Z,99.90
2022-08-26T23:03:41.826Z,99.90
2022-08-26T23:06:10.296Z,99.90
2022-08-26T23:08:37.734Z,99.90
2022-08-26T23:11:07.894Z,99.90
2022-08-26T23:13:34.695Z,99.90
2022-08-26T23:16:03.766Z,99.90
2022-08-26T23:18:30.898Z,99.90
2022-08-26T23:20:59.023Z,99.90
2022-08-26T23:23:27.375Z,99.90
2022-08-26T23:25:54.862Z,99.90
2022-08-26T23:28:23.045Z,99.90
2022-08-26T23:30:49.928Z,99.90
2022-08-26T23:38:15.174Z,99.90
2022-08-26T23:40:41.982Z,99.90
2022-08-26T23:43:11.490Z,99.90
2022-08-26T23:48:06.892Z,99.90
2022-08-26T23:50:52.621Z,99.90
2022-08-26T23:53:22.468Z,99.90
2022-08-26T23:55:51.423Z,99.90
2022-08-26T23:58:20.233Z,99.90
